KSMO/SMO METAR and TAF weather

Enter ICAO airport designator
Station Type Date Time Source
KSMO METAR 2023/02/05 22:51 UTC NOAA

KSMO 052251Z 25009KT 10SM CLR 17/08 A3013 RMK AO2 SLP203 T01720083


Station Type Date Time Source
KSMO Decoded METAR 2023/02/05 22:51 UTC NOAA

SANTA MONICA MUNICIPAL AIRPORT , CA, United States (KSMO) 34-01N 118-27W 57M
Feb 05, 2023 - 05:51 PM EST / 2023.02.05 2251 UTC
Wind: from the WSW (250 degrees) at 10 MPH (9 KT):0
Visibility: 10 mile(s):0
Sky conditions: clear
Temperature: 63.0 F (17.2 C)
Dew Point: 46.9 F (8.3 C)
Relative Humidity: 55%
Pressure (altimeter): 30.13 in. Hg (1020 hPa)
ob: KSMO 052251Z 25009KT 10SM CLR 17/08 A3013 RMK AO2 SLP203 T01720083
cycle: 23

Station Type Date Time Source
KSMO TAF 2023/02/05 18:30 UTC NOAA

KSMO 051827Z 0518/0618 25007KT P6SM SCT015
FM052000 26012G20KT P6SM FEW040
FM060300 32012KT P6SM SKC
FM060900 35008KT P6SM SKC
FM061300 VRB03KT P6SM SKC

Example: see airport list